Time;durP1;ratioP1;P1;durP2;ratioP2;P2;SDS_P1;SDS_P2;PMS_P1;PMS_P2;Temp;Humidity;BMP_temperature;BMP_pressure;BME280_temperature;BME280_humidity;BME280_pressure;Samples;Min_cycle;Max_cycle;Signal;HPM_P1;HPM_P2
2022/12/31 00:00:16;;;;;;;2.65;1.90;;;;;;;;;;5012960;28;20220;-68
2022/12/31 00:02:42;;;;;;;4.30;2.33;;;;;;;;;;5012353;28;20204;-69
2022/12/31 00:05:07;;;;;;;5.30;2.20;;;;;;;;;;5012868;28;20240;-68
2022/12/31 00:07:33;;;;;;;4.72;2.00;;;;;;;;;;4992999;28;20582;-68
2022/12/31 00:09:59;;;;;;;3.72;1.90;;;;;;;;;;4992597;28;20243;-68
2022/12/31 00:12:24;;;;;;;4.03;1.67;;;;;;;;;;4992817;28;20258;-68
2022/12/31 00:14:49;;;;;;;1.77;1.20;;;;;;;;;;4999417;28;20217;-68
2022/12/31 00:17:14;;;;;;;2.25;1.30;;;;;;;;;;5011989;28;20220;-68
2022/12/31 00:19:40;;;;;;;3.65;1.55;;;;;;;;;;5012969;28;20271;-68
2022/12/31 00:22:05;;;;;;;2.45;1.05;;;;;;;;;;5012611;28;20204;-67
2022/12/31 00:24:30;;;;;;;2.72;0.95;;;;;;;;;;5011275;28;20676;-67
2022/12/31 00:26:56;;;;;;;2.13;0.73;;;;;;;;;;5013054;28;20213;-68
2022/12/31 00:29:21;;;;;;;3.05;0.70;;;;;;;;;;5012214;28;20212;-68
2022/12/31 00:31:46;;;;;;;1.60;0.70;;;;;;;;;;5012179;28;20319;-68
2022/12/31 00:34:12;;;;;;;1.52;0.68;;;;;;;;;;5011878;28;20255;-67
2022/12/31 00:36:37;;;;;;;2.47;1.25;;;;;;;;;;5009458;28;20576;-68
2022/12/31 00:39:03;;;;;;;1.23;0.57;;;;;;;;;;5011293;28;20259;-67
2022/12/31 00:41:28;;;;;;;1.90;0.60;;;;;;;;;;4997506;28;20209;-67
2022/12/31 00:43:54;;;;;;;0.77;0.45;;;;;;;;;;5012489;28;20251;-68
2022/12/31 00:46:19;;;;;;;1.55;0.50;;;;;;;;;;5011461;28;20216;-67
2022/12/31 00:48:44;;;;;;;1.77;0.40;;;;;;;;;;5012492;28;20215;-67
2022/12/31 00:51:10;;;;;;;1.75;0.60;;;;;;;;;;5011347;28;20209;-67
2022/12/31 00:53:35;;;;;;;2.67;0.90;;;;;;;;;;5012399;28;20224;-67
2022/12/31 00:56:01;;;;;;;1.15;0.40;;;;;;;;;;4999006;28;20205;-67
2022/12/31 00:58:27;;;;;;;4.57;1.05;;;;;;;;;;4991973;28;20271;-67
2022/12/31 01:00:52;;;;;;;2.25;0.50;;;;;;;;;;4992787;28;20216;-67
2022/12/31 01:03:18;;;;;;;0.82;0.50;;;;;;;;;;4992173;28;20550;-68
2022/12/31 01:05:43;;;;;;;0.85;0.45;;;;;;;;;;4991925;28;20300;-68
2022/12/31 01:08:08;;;;;;;2.80;0.50;;;;;;;;;;4992588;28;20236;-68
2022/12/31 01:13:17;;;;;;;2.10;0.70;;;;;;;;;;4991598;28;20750;-68
2022/12/31 01:15:43;;;;;;;2.63;0.70;;;;;;;;;;4992803;28;20216;-68
2022/12/31 01:18:08;;;;;;;1.17;0.70;;;;;;;;;;4992414;28;20213;-68
2022/12/31 01:20:35;;;;;;;1.48;0.88;;;;;;;;;;4991741;28;20220;-68
2022/12/31 01:23:00;;;;;;;1.60;0.75;;;;;;;;;;4991622;28;20228;-68
2022/12/31 01:25:25;;;;;;;1.90;0.80;;;;;;;;;;4992204;28;20664;-68
2022/12/31 01:27:51;;;;;;;1.15;0.90;;;;;;;;;;4992095;28;20213;-69
2022/12/31 01:30:16;;;;;;;1.95;1.10;;;;;;;;;;4991980;28;20213;-68
2022/12/31 01:32:41;;;;;;;1.63;1.02;;;;;;;;;;4992657;28;20225;-68
2022/12/31 01:35:07;;;;;;;1.85;1.17;;;;;;;;;;5004955;28;20240;-68
2022/12/31 01:37:32;;;;;;;2.60;1.33;;;;;;;;;;5016190;28;20219;-68
2022/12/31 01:39:57;;;;;;;3.42;1.40;;;;;;;;;;5015663;28;20573;-68
2022/12/31 01:42:22;;;;;;;2.33;1.40;;;;;;;;;;5014555;28;20216;-68
2022/12/31 01:44:49;;;;;;;1.65;1.30;;;;;;;;;;5015868;28;20232;-69
2022/12/31 01:47:15;;;;;;;1.60;1.20;;;;;;;;;;5015121;28;20208;-68
2022/12/31 01:49:42;;;;;;;1.83;1.20;;;;;;;;;;5014325;28;20219;-69
2022/12/31 01:52:26;;;;;;;1.27;1.00;;;;;;;;;;5014072;28;20219;-69
2022/12/31 01:54:52;;;;;;;1.33;0.90;;;;;;;;;;5014758;28;20227;-70
2022/12/31 01:57:18;;;;;;;2.30;1.15;;;;;;;;;;4988315;28;20272;-70
2022/12/31 01:59:43;;;;;;;3.03;1.08;;;;;;;;;;4986403;28;20201;-70
2022/12/31 02:02:08;;;;;;;3.65;1.10;;;;;;;;;;5019280;28;20219;-69
2022/12/31 02:04:33;;;;;;;2.42;0.90;;;;;;;;;;5000651;28;20209;-70
2022/12/31 02:07:00;;;;;;;1.92;0.98;;;;;;;;;;4986552;28;20209;-70
2022/12/31 02:09:25;;;;;;;2.95;1.20;;;;;;;;;;4984715;28;20209;-70
2022/12/31 02:11:50;;;;;;;2.67;1.08;;;;;;;;;;4978451;28;20568;-69
2022/12/31 02:14:17;;;;;;;3.38;1.30;;;;;;;;;;4992071;28;20239;-70
2022/12/31 02:16:44;;;;;;;3.22;1.42;;;;;;;;;;5011465;28;20318;-70
2022/12/31 02:19:33;;;;;;;2.20;1.30;;;;;;;;;;5004658;28;20220;-70
2022/12/31 02:22:01;;;;;;;1.90;1.38;;;;;;;;;;5003900;28;20221;-70
2022/12/31 02:24:35;;;;;;;2.20;1.00;;;;;;;;;;5003123;28;20235;-69
2022/12/31 02:27:06;;;;;;;2.35;1.00;;;;;;;;;;5003393;28;20212;-68
2022/12/31 02:29:40;;;;;;;2.28;1.00;;;;;;;;;;5002982;28;20663;-70
2022/12/31 02:32:09;;;;;;;12.57;2.25;;;;;;;;;;5018705;28;20312;-69
2022/12/31 02:34:35;;;;;;;5.90;1.90;;;;;;;;;;4997261;28;20271;-70
2022/12/31 02:37:02;;;;;;;4.57;1.30;;;;;;;;;;4994288;28;20220;-68
2022/12/31 02:39:27;;;;;;;21.15;5.65;;;;;;;;;;4995056;28;20203;-70
2022/12/31 02:41:52;;;;;;;3.10;1.20;;;;;;;;;;4999865;28;20221;-70
2022/12/31 02:44:23;;;;;;;2.92;1.20;;;;;;;;;;4999535;28;20225;-70
2022/12/31 02:46:55;;;;;;;2.20;1.10;;;;;;;;;;4985730;28;20225;-70
2022/12/31 02:49:22;;;;;;;2.88;1.30;;;;;;;;;;4985662;28;20279;-70
2022/12/31 02:51:50;;;;;;;11.60;2.35;;;;;;;;;;5003567;28;20213;-70
2022/12/31 02:54:34;;;;;;;3.60;1.25;;;;;;;;;;5002693;28;20271;-70
2022/12/31 02:57:09;;;;;;;3.60;1.23;;;;;;;;;;4985882;28;20232;-70
2022/12/31 03:02:21;;;;;;;1.42;0.93;;;;;;;;;;4994267;28;20255;-70
2022/12/31 03:04:51;;;;;;;2.58;1.20;;;;;;;;;;5003026;28;20220;-70
2022/12/31 03:07:18;;;;;;;2.75;1.30;;;;;;;;;;5013626;28;20208;-70
2022/12/31 03:09:43;;;;;;;3.28;1.27;;;;;;;;;;5014521;28;20235;-70
2022/12/31 03:14:52;;;;;;;2.75;1.35;;;;;;;;;;5013372;28;20219;-70
2022/12/31 03:17:18;;;;;;;4.43;1.50;;;;;;;;;;5013668;28;20216;-70
2022/12/31 03:22:27;;;;;;;3.03;1.40;;;;;;;;;;5013431;28;20219;-70
2022/12/31 03:27:37;;;;;;;5.03;1.83;;;;;;;;;;5012365;28;20741;-70
2022/12/31 03:30:03;;;;;;;3.22;1.33;;;;;;;;;;5013624;28;20216;-70
2022/12/31 03:32:28;;;;;;;4.25;1.30;;;;;;;;;;5013592;28;20208;-70
2022/12/31 03:34:54;;;;;;;3.75;1.60;;;;;;;;;;5012917;28;20274;-70
2022/12/31 03:37:19;;;;;;;6.05;1.90;;;;;;;;;;5013147;28;20212;-69
2022/12/31 03:39:45;;;;;;;3.55;1.70;;;;;;;;;;5008070;28;20291;-70
2022/12/31 03:42:10;;;;;;;5.82;1.77;;;;;;;;;;4992676;28;20216;-69
2022/12/31 03:44:35;;;;;;;4.22;1.50;;;;;;;;;;4993730;28;20213;-69
2022/12/31 03:47:00;;;;;;;3.53;1.38;;;;;;;;;;4992639;28;20293;-68
2022/12/31 03:49:26;;;;;;;4.82;1.90;;;;;;;;;;4976355;28;20209;-69
2022/12/31 03:51:51;;;;;;;4.60;1.63;;;;;;;;;;4993760;28;20219;-69
2022/12/31 03:54:16;;;;;;;5.85;1.88;;;;;;;;;;4992330;28;20237;-69
2022/12/31 03:56:41;;;;;;;4.03;1.60;;;;;;;;;;4993488;28;20221;-69
2022/12/31 03:59:07;;;;;;;4.55;1.35;;;;;;;;;;4992391;28;20205;-69
2022/12/31 04:01:32;;;;;;;3.17;1.30;;;;;;;;;;4992753;28;20215;-69
2022/12/31 04:03:57;;;;;;;4.80;1.38;;;;;;;;;;4993548;28;20576;-69
2022/12/31 04:06:22;;;;;;;4.30;1.65;;;;;;;;;;4994170;28;20229;-69
2022/12/31 04:08:48;;;;;;;5.35;1.88;;;;;;;;;;4984460;28;20237;-69
2022/12/31 04:11:13;;;;;;;4.15;2.08;;;;;;;;;;4973646;28;20221;-69
2022/12/31 04:13:38;;;;;;;4.35;2.08;;;;;;;;;;4973690;28;20228;-69
2022/12/31 04:16:03;;;;;;;4.97;2.28;;;;;;;;;;4972949;28;20780;-69
2022/12/31 04:18:29;;;;;;;5.18;2.05;;;;;;;;;;4973966;28;20220;-69
2022/12/31 04:20:54;;;;;;;4.68;2.38;;;;;;;;;;4973994;28;20222;-69
2022/12/31 04:23:19;;;;;;;3.80;2.20;;;;;;;;;;4972533;28;20221;-68
2022/12/31 04:25:44;;;;;;;4.70;2.55;;;;;;;;;;4961654;28;20228;-69
2022/12/31 04:28:10;;;;;;;6.13;2.85;;;;;;;;;;4955661;28;20308;-68
2022/12/31 04:30:35;;;;;;;6.30;2.92;;;;;;;;;;4957966;28;20217;-69
2022/12/31 04:33:00;;;;;;;5.45;2.67;;;;;;;;;;4963758;28;20638;-66
2022/12/31 04:35:25;;;;;;;5.63;3.13;;;;;;;;;;4979833;28;20240;-69
2022/12/31 04:37:51;;;;;;;5.25;3.33;;;;;;;;;;4982534;28;20624;-69
2022/12/31 04:40:16;;;;;;;5.28;3.15;;;;;;;;;;4983189;28;20220;-69
2022/12/31 04:42:41;;;;;;;4.72;3.10;;;;;;;;;;4983439;28;20565;-69
2022/12/31 04:45:07;;;;;;;5.28;3.40;;;;;;;;;;4982383;28;20225;-68
2022/12/31 04:47:32;;;;;;;5.20;3.15;;;;;;;;;;4991084;28;20596;-68
2022/12/31 04:49:57;;;;;;;4.60;3.00;;;;;;;;;;4975727;28;20209;-69
2022/12/31 04:52:22;;;;;;;3.85;2.90;;;;;;;;;;4974888;28;20213;-69
2022/12/31 04:54:48;;;;;;;4.47;3.15;;;;;;;;;;4982586;28;20212;-69
2022/12/31 04:57:13;;;;;;;5.10;3.22;;;;;;;;;;4982388;28;20217;-68
2022/12/31 04:59:38;;;;;;;5.40;3.30;;;;;;;;;;4982756;28;20656;-69
2022/12/31 05:02:04;;;;;;;4.05;2.85;;;;;;;;;;4983006;28;20256;-68
2022/12/31 05:04:29;;;;;;;6.57;3.60;;;;;;;;;;4982691;28;20279;-68
2022/12/31 05:06:54;;;;;;;5.13;3.30;;;;;;;;;;4983366;28;20217;-69
2022/12/31 05:09:22;;;;;;;5.25;3.40;;;;;;;;;;4977287;28;20220;-68
2022/12/31 05:11:48;;;;;;;4.88;3.10;;;;;;;;;;4977313;28;20228;-69
2022/12/31 05:14:13;;;;;;;4.47;3.10;;;;;;;;;;4978728;28;20615;-68
2022/12/31 05:16:38;;;;;;;4.03;2.85;;;;;;;;;;4983957;28;20220;-69
2022/12/31 05:19:05;;;;;;;6.00;3.38;;;;;;;;;;4985955;28;20247;-68
2022/12/31 05:21:30;;;;;;;4.90;2.97;;;;;;;;;;4986886;28;20220;-68
2022/12/31 05:23:55;;;;;;;3.47;2.60;;;;;;;;;;4986924;28;20573;-69
2022/12/31 05:26:21;;;;;;;3.80;2.15;;;;;;;;;;4985578;28;20223;-69
2022/12/31 05:28:46;;;;;;;4.57;1.75;;;;;;;;;;4987067;28;20522;-68
2022/12/31 05:31:11;;;;;;;2.10;1.73;;;;;;;;;;4983211;28;20683;-68
2022/12/31 05:33:36;;;;;;;3.95;2.10;;;;;;;;;;4978712;28;20554;-68
2022/12/31 05:36:02;;;;;;;4.05;2.17;;;;;;;;;;4976915;28;20623;-68
2022/12/31 05:38:27;;;;;;;3.75;1.95;;;;;;;;;;4979999;28;20235;-69
2022/12/31 05:40:59;;;;;;;3.00;1.75;;;;;;;;;;4984585;28;20217;-68
2022/12/31 05:43:24;;;;;;;1.40;1.20;;;;;;;;;;4985218;28;20684;-68
2022/12/31 05:45:50;;;;;;;1.23;0.98;;;;;;;;;;4985002;28;20217;-68
2022/12/31 05:48:15;;;;;;;2.85;1.00;;;;;;;;;;4984433;28;20217;-68
2022/12/31 05:50:40;;;;;;;1.13;0.70;;;;;;;;;;4984863;28;20668;-68
2022/12/31 05:53:05;;;;;;;0.90;0.68;;;;;;;;;;4984396;28;20283;-68
2022/12/31 05:55:31;;;;;;;0.52;0.30;;;;;;;;;;4977347;28;20216;-68
2022/12/31 05:57:56;;;;;;;0.30;0.30;;;;;;;;;;4977018;28;20809;-68
2022/12/31 06:00:21;;;;;;;0.22;0.22;;;;;;;;;;4976627;28;20224;-68
2022/12/31 06:02:46;;;;;;;0.63;0.30;;;;;;;;;;4984394;28;20213;-68
2022/12/31 06:05:12;;;;;;;1.17;0.30;;;;;;;;;;4984762;28;20221;-68
2022/12/31 06:07:37;;;;;;;0.30;0.30;;;;;;;;;;4984688;28;20213;-68
2022/12/31 06:10:02;;;;;;;0.30;0.30;;;;;;;;;;4984262;28;20209;-67
2022/12/31 06:12:27;;;;;;;0.43;0.40;;;;;;;;;;4984891;28;20217;-69
2022/12/31 06:14:53;;;;;;;0.30;0.30;;;;;;;;;;4984573;28;20228;-68
2022/12/31 06:17:19;;;;;;;0.70;0.30;;;;;;;;;;4978649;28;21188;-68
2022/12/31 06:19:45;;;;;;;0.32;0.30;;;;;;;;;;4976982;28;20220;-68
2022/12/31 06:22:10;;;;;;;0.30;0.30;;;;;;;;;;4975452;28;20530;-68
2022/12/31 06:24:35;;;;;;;0.47;0.30;;;;;;;;;;4982803;28;20317;-68
2022/12/31 06:27:01;;;;;;;0.28;0.28;;;;;;;;;;4984339;28;20213;-66
2022/12/31 06:29:26;;;;;;;0.40;0.40;;;;;;;;;;4984253;28;20576;-68
2022/12/31 06:31:51;;;;;;;0.45;0.45;;;;;;;;;;4984089;28;20213;-68
2022/12/31 06:34:17;;;;;;;0.40;0.40;;;;;;;;;;4946819;28;1107422;-68
2022/12/31 06:36:42;;;;;;;0.70;0.50;;;;;;;;;;4985214;28;20256;-67
2022/12/31 06:39:07;;;;;;;1.00;0.60;;;;;;;;;;4982086;28;20225;-67
2022/12/31 06:41:33;;;;;;;0.55;0.45;;;;;;;;;;4978445;28;20209;-67
2022/12/31 06:43:58;;;;;;;0.40;0.40;;;;;;;;;;4976698;28;20240;-68
2022/12/31 06:46:23;;;;;;;2.38;0.60;;;;;;;;;;4980200;28;20755;-68
2022/12/31 06:48:48;;;;;;;1.88;0.60;;;;;;;;;;4985584;28;20213;-69
2022/12/31 06:51:14;;;;;;;1.00;0.90;;;;;;;;;;4984689;28;20348;-68
2022/12/31 06:53:40;;;;;;;1.58;1.00;;;;;;;;;;4985397;28;20796;-68
2022/12/31 06:56:06;;;;;;;0.68;0.40;;;;;;;;;;4985284;28;20303;-68
2022/12/31 06:58:31;;;;;;;0.40;0.40;;;;;;;;;;4984686;28;20780;-68
2022/12/31 07:01:00;;;;;;;1.58;0.40;;;;;;;;;;4985025;28;20213;-68
2022/12/31 07:03:37;;;;;;;1.17;0.47;;;;;;;;;;4994991;28;20204;-68
2022/12/31 07:06:07;;;;;;;0.68;0.50;;;;;;;;;;4989373;28;20648;-68
2022/12/31 07:08:40;;;;;;;2.60;0.60;;;;;;;;;;4987404;28;20209;-70
2022/12/31 07:11:20;;;;;;;2.92;0.70;;;;;;;;;;4984294;28;20213;-69
2022/12/31 07:13:48;;;;;;;3.00;0.82;;;;;;;;;;5004283;28;20308;-71
2022/12/31 07:16:16;;;;;;;2.20;0.80;;;;;;;;;;5004191;28;20212;-69
2022/12/31 07:18:46;;;;;;;1.02;0.60;;;;;;;;;;5003418;28;20235;-69
2022/12/31 07:21:12;;;;;;;2.15;0.60;;;;;;;;;;5002331;28;20216;-68
2022/12/31 07:23:38;;;;;;;2.65;0.60;;;;;;;;;;4995955;28;20715;-68
2022/12/31 07:26:05;;;;;;;2.30;0.63;;;;;;;;;;4976840;28;20269;-67
2022/12/31 07:28:34;;;;;;;0.50;0.50;;;;;;;;;;4995637;28;20961;-67
2022/12/31 07:31:04;;;;;;;1.48;0.60;;;;;;;;;;4997310;28;20224;-68
2022/12/31 07:33:32;;;;;;;3.00;0.90;;;;;;;;;;4989149;28;20221;-69
2022/12/31 07:36:20;;;;;;;3.28;1.10;;;;;;;;;;4984781;28;20249;-69
2022/12/31 07:38:49;;;;;;;4.13;1.40;;;;;;;;;;5018289;28;20213;-69
2022/12/31 07:41:22;;;;;;;3.42;1.75;;;;;;;;;;5001625;28;20296;-68
2022/12/31 07:43:54;;;;;;;2.55;1.60;;;;;;;;;;5003399;28;20215;-68
2022/12/31 07:46:23;;;;;;;2.60;1.58;;;;;;;;;;5001519;28;20219;-68
2022/12/31 07:48:49;;;;;;;2.15;1.55;;;;;;;;;;5010853;28;20232;-68
2022/12/31 07:51:14;;;;;;;4.07;1.70;;;;;;;;;;5013368;28;20267;-65
2022/12/31 07:53:39;;;;;;;5.30;2.50;;;;;;;;;;5011577;28;20530;-64
2022/12/31 07:56:05;;;;;;;5.18;2.55;;;;;;;;;;5013156;28;20213;-66
2022/12/31 07:58:32;;;;;;;4.30;2.10;;;;;;;;;;5012024;28;20204;-65
2022/12/31 08:00:57;;;;;;;6.75;2.35;;;;;;;;;;5012537;28;20223;-65
2022/12/31 08:03:42;;;;;;;4.75;2.33;;;;;;;;;;5000178;28;20209;-68
2022/12/31 08:06:08;;;;;;;4.00;2.38;;;;;;;;;;5010540;28;20220;-67
2022/12/31 08:08:52;;;;;;;2.38;1.40;;;;;;;;;;5010356;28;20219;-66
2022/12/31 08:11:26;;;;;;;3.42;1.70;;;;;;;;;;5011751;28;20217;-66
2022/12/31 08:13:51;;;;;;;2.28;1.40;;;;;;;;;;5002771;28;20221;-66
2022/12/31 08:16:17;;;;;;;3.63;2.25;;;;;;;;;;5004510;28;20208;-67
2022/12/31 08:18:42;;;;;;;5.00;2.55;;;;;;;;;;5012389;28;20235;-67
2022/12/31 08:21:08;;;;;;;3.83;2.00;;;;;;;;;;5011345;28;20295;-68
2022/12/31 08:23:43;;;;;;;4.13;1.08;;;;;;;;;;5012438;28;20220;-68
2022/12/31 08:26:12;;;;;;;0.70;0.60;;;;;;;;;;5009998;28;20594;-67
2022/12/31 08:28:53;;;;;;;2.95;0.75;;;;;;;;;;5011717;28;20216;-67
2022/12/31 08:31:20;;;;;;;2.25;0.40;;;;;;;;;;5011969;28;20204;-67
2022/12/31 08:33:45;;;;;;;2.85;0.47;;;;;;;;;;5002628;28;20304;-68
2022/12/31 08:36:10;;;;;;;0.95;0.47;;;;;;;;;;5011151;28;20307;-67
2022/12/31 08:38:39;;;;;;;3.60;0.70;;;;;;;;;;5012437;28;20275;-67
2022/12/31 08:41:12;;;;;;;2.40;0.60;;;;;;;;;;5002001;28;20197;-66
2022/12/31 08:43:42;;;;;;;1.50;0.60;;;;;;;;;;5011299;28;20236;-67
2022/12/31 08:46:12;;;;;;;1.67;0.45;;;;;;;;;;5011609;28;20200;-67
2022/12/31 08:48:38;;;;;;;2.40;0.55;;;;;;;;;;5005276;28;20282;-68
2022/12/31 08:51:04;;;;;;;3.80;1.30;;;;;;;;;;5008407;28;20805;-69
2022/12/31 08:53:29;;;;;;;2.38;0.60;;;;;;;;;;5012022;28;20671;-68
2022/12/31 08:55:56;;;;;;;2.25;0.55;;;;;;;;;;5009387;28;20672;-68
2022/12/31 08:58:26;;;;;;;4.50;0.85;;;;;;;;;;5007063;28;20225;-68
2022/12/31 09:00:52;;;;;;;3.53;0.90;;;;;;;;;;5005611;28;20220;-69
2022/12/31 09:03:24;;;;;;;1.88;0.70;;;;;;;;;;5003430;28;20247;-65
2022/12/31 09:05:51;;;;;;;0.93;0.50;;;;;;;;;;5011540;28;20240;-67
2022/12/31 09:08:35;;;;;;;1.67;0.60;;;;;;;;;;5011711;28;20212;-66
2022/12/31 09:11:04;;;;;;;1.48;0.40;;;;;;;;;;5010701;28;20205;-66
2022/12/31 09:13:36;;;;;;;1.17;0.50;;;;;;;;;;5010390;28;20278;-66
2022/12/31 09:16:02;;;;;;;1.65;0.73;;;;;;;;;;5007257;28;20291;-66
2022/12/31 09:18:28;;;;;;;2.15;0.40;;;;;;;;;;5011233;28;20559;-67
2022/12/31 09:20:53;;;;;;;4.38;0.50;;;;;;;;;;5010417;28;20204;-67
2022/12/31 09:23:18;;;;;;;1.33;0.60;;;;;;;;;;5011190;28;20201;-66
2022/12/31 09:25:54;;;;;;;1.88;0.70;;;;;;;;;;5010957;28;20243;-67
2022/12/31 09:28:33;;;;;;;1.67;0.55;;;;;;;;;;5010275;28;20200;-66
2022/12/31 09:31:03;;;;;;;2.45;1.05;;;;;;;;;;5010275;28;20209;-66
2022/12/31 09:33:37;;;;;;;1.35;0.60;;;;;;;;;;5010722;28;20307;-66
2022/12/31 09:36:04;;;;;;;2.40;0.85;;;;;;;;;;5007337;28;20566;-66
2022/12/31 09:38:32;;;;;;;2.97;0.70;;;;;;;;;;5010921;28;20247;-66
2022/12/31 09:41:04;;;;;;;2.95;1.10;;;;;;;;;;5011319;28;20215;-66
2022/12/31 09:43:35;;;;;;;2.20;0.98;;;;;;;;;;5010017;28;20217;-65
2022/12/31 09:46:20;;;;;;;2.85;1.10;;;;;;;;;;5009481;28;20236;-66
2022/12/31 09:48:55;;;;;;;2.45;0.90;;;;;;;;;;5009291;28;20283;-65
2022/12/31 09:51:28;;;;;;;3.80;1.30;;;;;;;;;;5009657;28;20269;-66
2022/12/31 09:53:54;;;;;;;3.67;1.20;;;;;;;;;;5010911;28;20216;-65
2022/12/31 09:56:21;;;;;;;3.95;1.63;;;;;;;;;;5011831;28;20204;-65
2022/12/31 09:59:02;;;;;;;2.78;1.08;;;;;;;;;;5014006;28;20664;-66
2022/12/31 10:01:35;;;;;;;2.50;1.05;;;;;;;;;;5011075;28;20596;-66
2022/12/31 10:04:07;;;;;;;2.88;1.05;;;;;;;;;;5013463;28;20209;-68
2022/12/31 10:06:33;;;;;;;3.55;1.17;;;;;;;;;;5014274;28;20216;-66
2022/12/31 10:09:02;;;;;;;1.77;1.00;;;;;;;;;;5013942;28;20216;-65
2022/12/31 10:11:39;;;;;;;3.35;0.90;;;;;;;;;;5010667;28;20684;-66
2022/12/31 10:14:04;;;;;;;5.05;1.10;;;;;;;;;;5010078;28;20299;-65
2022/12/31 10:16:30;;;;;;;5.45;1.00;;;;;;;;;;5014296;28;20351;-66
2022/12/31 10:19:11;;;;;;;2.92;0.85;;;;;;;;;;5014907;28;20284;-65
2022/12/31 10:21:37;;;;;;;2.95;0.77;;;;;;;;;;5012896;28;20682;-66
2022/12/31 10:24:04;;;;;;;3.47;0.85;;;;;;;;;;5011186;28;20240;-65
2022/12/31 10:26:35;;;;;;;3.92;1.10;;;;;;;;;;5014399;28;20349;-65
2022/12/31 10:29:09;;;;;;;5.18;1.40;;;;;;;;;;5012086;28;20204;-66
2022/12/31 10:31:38;;;;;;;5.47;1.10;;;;;;;;;;5013051;28;20208;-67
2022/12/31 10:34:15;;;;;;;3.47;1.10;;;;;;;;;;5010813;28;20585;-66
2022/12/31 10:36:41;;;;;;;3.90;1.05;;;;;;;;;;5013252;28;20565;-67
2022/12/31 10:39:18;;;;;;;4.07;1.40;;;;;;;;;;5013300;28;20274;-66
2022/12/31 10:41:44;;;;;;;3.75;1.00;;;;;;;;;;4996355;28;20208;-66
2022/12/31 10:44:15;;;;;;;3.03;1.00;;;;;;;;;;5001513;28;20356;-66
2022/12/31 10:46:50;;;;;;;3.20;0.90;;;;;;;;;;5011583;28;20207;-67
2022/12/31 10:49:23;;;;;;;5.20;1.75;;;;;;;;;;5003649;28;20200;-67
2022/12/31 10:51:55;;;;;;;4.65;1.10;;;;;;;;;;5013991;28;20576;-66
2022/12/31 10:54:21;;;;;;;4.15;1.08;;;;;;;;;;5014044;28;20703;-67
2022/12/31 10:57:14;;;;;;;3.83;0.98;;;;;;;;;;5013753;28;20223;-68
2022/12/31 10:59:39;;;;;;;4.40;0.90;;;;;;;;;;5008312;28;20284;-67
2022/12/31 11:02:10;;;;;;;3.03;0.98;;;;;;;;;;4994164;28;20307;-67
2022/12/31 11:04:54;;;;;;;4.50;1.60;;;;;;;;;;5005035;28;20208;-67
2022/12/31 11:07:20;;;;;;;3.80;1.20;;;;;;;;;;5013011;28;20216;-67
2022/12/31 11:09:52;;;;;;;5.45;1.35;;;;;;;;;;5013790;28;20212;-66
2022/12/31 11:12:27;;;;;;;4.50;1.17;;;;;;;;;;5013258;28;20208;-66
2022/12/31 11:15:02;;;;;;;6.80;1.40;;;;;;;;;;5014088;28;20262;-66
2022/12/31 11:17:45;;;;;;;5.70;1.50;;;;;;;;;;5011874;28;20200;-66
2022/12/31 11:20:11;;;;;;;6.38;1.20;;;;;;;;;;5013718;28;20243;-66
2022/12/31 11:22:48;;;;;;;3.47;1.20;;;;;;;;;;5013818;28;20232;-67
2022/12/31 11:25:16;;;;;;;3.95;1.25;;;;;;;;;;5012703;28;20226;-67
2022/12/31 11:27:51;;;;;;;7.75;1.50;;;;;;;;;;5014109;28;20216;-65
2022/12/31 11:30:22;;;;;;;6.90;1.75;;;;;;;;;;5013509;28;20226;-64
2022/12/31 11:33:04;;;;;;;6.25;2.10;;;;;;;;;;5012951;28;20212;-67
2022/12/31 11:35:41;;;;;;;5.05;1.30;;;;;;;;;;5010688;28;20254;-67
2022/12/31 11:38:07;;;;;;;6.45;2.30;;;;;;;;;;5009804;28;20220;-68
2022/12/31 11:40:36;;;;;;;5.45;1.70;;;;;;;;;;5013754;28;20213;-67
2022/12/31 11:43:10;;;;;;;5.95;1.52;;;;;;;;;;5011975;28;20651;-66
2022/12/31 11:45:54;;;;;;;4.25;1.30;;;;;;;;;;5012856;28;20213;-68
2022/12/31 11:48:40;;;;;;;8.98;2.00;;;;;;;;;;5012585;28;20702;-67
2022/12/31 11:51:24;;;;;;;7.93;1.30;;;;;;;;;;5003369;28;20207;-68
2022/12/31 11:54:00;;;;;;;4.60;2.03;;;;;;;;;;5009142;28;20239;-67
2022/12/31 11:56:29;;;;;;;7.57;1.40;;;;;;;;;;5012801;28;20200;-64
2022/12/31 11:58:54;;;;;;;4.40;1.30;;;;;;;;;;5012017;28;20223;-66
2022/12/31 12:01:20;;;;;;;6.75;1.10;;;;;;;;;;5011666;28;20231;-66
2022/12/31 12:03:46;;;;;;;5.32;1.20;;;;;;;;;;5012634;28;20695;-67
2022/12/31 12:06:11;;;;;;;5.55;1.70;;;;;;;;;;5002254;28;20224;-66
2022/12/31 12:08:37;;;;;;;5.72;1.20;;;;;;;;;;5012726;28;20220;-66
2022/12/31 12:11:04;;;;;;;7.18;1.55;;;;;;;;;;5012329;28;20551;-66
2022/12/31 12:13:29;;;;;;;6.15;1.20;;;;;;;;;;5011742;28;20727;-66
2022/12/31 12:15:56;;;;;;;5.88;1.60;;;;;;;;;;5012720;28;20220;-67
2022/12/31 12:18:25;;;;;;;7.00;2.08;;;;;;;;;;5011980;28;20263;-66
2022/12/31 12:20:51;;;;;;;4.65;1.13;;;;;;;;;;5011300;28;20296;-67
2022/12/31 12:23:23;;;;;;;5.47;1.20;;;;;;;;;;5011915;28;20295;-67
2022/12/31 12:25:49;;;;;;;5.80;1.02;;;;;;;;;;5012312;28;20219;-67
2022/12/31 12:28:21;;;;;;;4.18;1.20;;;;;;;;;;5011261;28;20287;-66
2022/12/31 12:30:53;;;;;;;6.65;1.27;;;;;;;;;;5012401;28;20693;-67
2022/12/31 12:33:19;;;;;;;5.20;1.35;;;;;;;;;;5000390;28;20221;-67
2022/12/31 12:35:44;;;;;;;5.07;1.13;;;;;;;;;;5011342;28;20238;-68
2022/12/31 12:38:13;;;;;;;4.88;1.20;;;;;;;;;;5011891;28;20300;-67
2022/12/31 12:40:38;;;;;;;5.10;1.20;;;;;;;;;;5012184;28;20235;-68
2022/12/31 12:43:03;;;;;;;5.68;1.30;;;;;;;;;;5011199;28;20695;-68
2022/12/31 12:45:38;;;;;;;15.10;2.75;;;;;;;;;;5012236;28;20224;-69
2022/12/31 12:48:06;;;;;;;8.00;1.40;;;;;;;;;;5011142;28;20231;-68
2022/12/31 12:50:34;;;;;;;5.03;1.73;;;;;;;;;;5011721;28;20208;-69
2022/12/31 12:52:59;;;;;;;7.35;1.30;;;;;;;;;;5011467;28;20679;-69
2022/12/31 12:55:25;;;;;;;6.82;1.40;;;;;;;;;;5011116;28;20227;-69
2022/12/31 12:58:00;;;;;;;6.07;1.27;;;;;;;;;;5012876;28;20277;-68
2022/12/31 13:00:35;;;;;;;5.85;1.55;;;;;;;;;;5009333;28;20679;-68
2022/12/31 13:03:06;;;;;;;6.93;1.65;;;;;;;;;;5012009;28;20212;-68
2022/12/31 13:05:44;;;;;;;7.88;1.73;;;;;;;;;;5012113;28;20220;-68
2022/12/31 13:08:25;;;;;;;6.00;1.60;;;;;;;;;;5011008;28;20219;-68
2022/12/31 13:11:10;;;;;;;6.50;1.63;;;;;;;;;;5011550;28;20302;-68
2022/12/31 13:13:35;;;;;;;6.38;1.40;;;;;;;;;;5010892;28;20239;-68
2022/12/31 13:16:15;;;;;;;4.43;1.20;;;;;;;;;;5012052;28;20566;-67
2022/12/31 13:18:45;;;;;;;4.70;1.42;;;;;;;;;;5011888;28;20220;-68
2022/12/31 13:21:13;;;;;;;7.78;1.30;;;;;;;;;;5011765;28;20219;-67
2022/12/31 13:23:54;;;;;;;5.03;1.38;;;;;;;;;;5003229;28;20263;-69
2022/12/31 13:26:23;;;;;;;6.22;1.30;;;;;;;;;;4994452;28;20223;-67
2022/12/31 13:28:49;;;;;;;5.72;1.55;;;;;;;;;;4995415;28;20295;-67
2022/12/31 13:31:16;;;;;;;6.03;1.45;;;;;;;;;;4997434;28;20212;-67
2022/12/31 13:33:43;;;;;;;4.25;1.40;;;;;;;;;;5007696;28;20228;-67
2022/12/31 13:36:09;;;;;;;5.43;1.63;;;;;;;;;;5007943;28;20220;-68
2022/12/31 13:38:35;;;;;;;6.88;2.13;;;;;;;;;;5007877;28;20212;-67
2022/12/31 13:41:02;;;;;;;5.82;1.25;;;;;;;;;;5008900;28;20250;-67
2022/12/31 13:43:31;;;;;;;7.00;1.80;;;;;;;;;;5009825;28;20266;-67
2022/12/31 13:46:01;;;;;;;6.20;1.70;;;;;;;;;;5008925;28;20243;-68
2022/12/31 13:48:29;;;;;;;5.45;1.58;;;;;;;;;;5001904;28;20216;-67
2022/12/31 13:50:59;;;;;;;5.22;1.60;;;;;;;;;;5000244;28;20239;-68
2022/12/31 13:53:26;;;;;;;5.15;1.55;;;;;;;;;;4999988;28;20256;-67
2022/12/31 13:55:56;;;;;;;6.07;1.30;;;;;;;;;;5005827;28;20212;-68
2022/12/31 13:58:26;;;;;;;5.60;1.52;;;;;;;;;;5009186;28;20615;-68
2022/12/31 14:00:53;;;;;;;5.15;1.60;;;;;;;;;;5009126;28;20216;-68
2022/12/31 14:03:21;;;;;;;6.30;1.83;;;;;;;;;;5008979;28;20220;-68
2022/12/31 14:05:51;;;;;;;9.02;2.60;;;;;;;;;;5007152;28;20208;-67
2022/12/31 14:08:17;;;;;;;5.18;2.00;;;;;;;;;;5007536;28;20267;-68
2022/12/31 14:10:49;;;;;;;6.07;2.13;;;;;;;;;;5003186;28;20779;-67
2022/12/31 14:13:14;;;;;;;8.77;2.28;;;;;;;;;;4999925;28;20239;-67
2022/12/31 14:15:41;;;;;;;4.75;1.60;;;;;;;;;;5001703;28;20208;-67
2022/12/31 14:18:17;;;;;;;8.48;3.00;;;;;;;;;;5005483;28;20209;-67
2022/12/31 14:20:43;;;;;;;8.25;2.60;;;;;;;;;;5007228;28;20224;-67
2022/12/31 14:23:09;;;;;;;5.95;1.75;;;;;;;;;;5008505;28;20221;-67
2022/12/31 14:25:37;;;;;;;6.57;1.90;;;;;;;;;;5008912;28;20350;-67
2022/12/31 14:28:04;;;;;;;7.55;2.15;;;;;;;;;;5006463;28;20215;-67
2022/12/31 14:30:30;;;;;;;9.15;2.40;;;;;;;;;;5023918;28;20665;-67
2022/12/31 14:33:00;;;;;;;8.07;2.05;;;;;;;;;;5004305;28;20274;-67
2022/12/31 14:35:33;;;;;;;6.80;2.00;;;;;;;;;;4984260;28;20391;-67
2022/12/31 14:37:58;;;;;;;7.05;2.45;;;;;;;;;;4982232;28;20299;-67
2022/12/31 14:40:25;;;;;;;7.93;2.58;;;;;;;;;;4984543;28;20221;-67
2022/12/31 14:42:51;;;;;;;6.35;1.95;;;;;;;;;;4988313;28;20216;-67
2022/12/31 14:45:16;;;;;;;9.27;2.00;;;;;;;;;;4988584;28;20229;-67
2022/12/31 14:47:51;;;;;;;7.95;1.98;;;;;;;;;;4989696;28;20731;-67
2022/12/31 14:50:20;;;;;;;7.85;1.92;;;;;;;;;;4988091;28;20223;-67
2022/12/31 14:52:46;;;;;;;9.77;2.28;;;;;;;;;;4971541;28;20228;-66
2022/12/31 14:55:13;;;;;;;8.15;1.80;;;;;;;;;;4986441;28;20217;-66
2022/12/31 14:57:39;;;;;;;7.97;2.40;;;;;;;;;;4980855;28;20275;-67
2022/12/31 15:00:22;;;;;;;7.40;1.90;;;;;;;;;;4962507;28;20613;-66
2022/12/31 15:02:49;;;;;;;9.85;3.63;;;;;;;;;;4966918;28;20236;-66